Time;durP1;ratioP1;P1;durP2;ratioP2;P2;SDS_P1;SDS_P2;PMS_P1;PMS_P2;Temp;Humidity;BMP_temperature;BMP_pressure;BME280_temperature;BME280_humidity;BME280_pressure;Samples;Min_cycle;Max_cycle;Signal;HPM_P1;HPM_P2
2021/09/02 00:27:39;;;;;;;14.68;8.65;;;10.10;99.90;;;11.50;100.00;101725.63;6163106;23;20021;-91
2021/09/02 00:30:07;;;;;;;17.73;9.60;;;10.10;99.90;;;11.48;100.00;101727.97;6137833;23;20352;-91
2021/09/02 00:32:36;;;;;;;17.80;10.20;;;10.10;99.90;;;11.40;100.00;101723.22;6140867;23;20384;-89
2021/09/02 00:35:04;;;;;;;19.13;10.40;;;10.10;99.90;;;11.40;100.00;101720.44;6135164;23;20016;-93
2021/09/02 00:37:30;;;;;;;17.80;9.73;;;10.00;99.90;;;11.46;100.00;101725.50;6162878;23;20008;-91
2021/09/02 00:39:57;;;;;;;15.30;9.07;;;10.00;99.90;;;11.43;100.00;101726.16;6140816;23;20041;-91
2021/09/02 00:42:24;;;;;;;14.95;8.85;;;10.00;99.90;;;11.34;100.00;101718.97;6137931;23;20385;-90
2021/09/02 00:44:50;;;;;;;17.15;9.23;;;10.00;99.90;;;11.27;100.00;101711.13;6159474;23;20013;-90
2021/09/02 00:47:27;;;;;;;15.73;9.27;;;9.90;99.90;;;11.18;100.00;101712.31;6160635;23;20010;-89
2021/09/02 00:49:55;;;;;;;15.65;9.57;;;9.90;99.90;;;11.15;100.00;101713.81;6139561;23;20093;-91
2021/09/02 00:52:30;;;;;;;12.98;8.35;;;9.80;99.90;;;11.10;100.00;101708.44;6134551;23;20013;-91
2021/09/02 00:55:07;;;;;;;18.40;8.90;;;9.70;99.90;;;11.04;100.00;101716.16;6141764;23;20012;-91
2021/09/02 00:57:37;;;;;;;17.55;9.60;;;9.80;99.90;;;11.03;100.00;101708.94;6137223;23;20009;-90
2021/09/02 01:00:19;;;;;;;14.90;9.00;;;9.70;99.90;;;10.99;100.00;101709.94;6160792;23;20005;-89
2021/09/02 01:02:48;;;;;;;18.67;9.50;;;9.60;99.90;;;10.96;100.00;101713.41;6136861;23;20056;-91
2021/09/02 01:05:20;;;;;;;19.40;10.15;;;9.60;99.90;;;10.95;100.00;101708.97;6134992;23;20039;-91
2021/09/02 01:07:48;;;;;;;19.15;9.50;;;9.60;99.90;;;10.95;100.00;101720.97;6169841;23;20076;-93
2021/09/02 01:10:15;;;;;;;15.20;9.35;;;9.60;99.90;;;10.93;100.00;101720.50;6138376;23;20061;-92
2021/09/02 01:12:52;;;;;;;20.00;9.95;;;9.60;99.90;;;10.96;100.00;101722.63;6138849;23;20005;-90
2021/09/02 01:15:24;;;;;;;16.75;9.75;;;9.50;99.90;;;10.89;100.00;101722.31;6136541;23;20005;-91
2021/09/02 01:18:00;;;;;;;20.20;10.43;;;9.50;99.90;;;10.91;100.00;101711.63;6159739;23;20009;-92
2021/09/02 01:20:32;;;;;;;;;;;9.50;99.90;;;10.93;100.00;101720.50;6160234;23;20069;-90
2021/09/02 01:23:03;;;;;;;19.80;10.60;;;9.50;99.90;;;10.92;100.00;101710.47;6133886;23;19915;-92
2021/09/02 01:25:40;;;;;;;18.17;10.15;;;9.60;99.90;;;10.94;100.00;101716.56;6133052;23;20048;-90
2021/09/02 01:28:11;;;;;;;16.02;9.30;;;9.60;99.90;;;10.96;100.00;101717.03;6157942;23;20467;-89
2021/09/02 01:30:40;;;;;;;19.50;10.82;;;9.50;99.90;;;10.87;100.00;101710.66;6134342;23;20076;-92
2021/09/02 01:33:17;;;;;;;17.15;10.27;;;9.50;99.90;;;10.83;100.00;101704.09;6162048;23;20016;-91
2021/09/02 01:35:47;;;;;;;18.95;10.18;;;9.50;99.90;;;10.84;100.00;101707.72;6135810;23;20016;-89
2021/09/02 01:38:15;;;;;;;18.80;9.57;;;9.50;99.90;;;10.79;100.00;101708.69;6135033;23;20009;-93
2021/09/02 01:40:47;;;;;;;17.08;9.43;;;9.50;99.90;;;10.74;100.00;101710.88;6134626;23;20016;-90
2021/09/02 01:43:17;;;;;;;18.08;9.77;;;9.40;99.90;;;10.70;100.00;101712.69;6132870;23;20069;-90
2021/09/02 01:45:45;;;;;;;17.73;10.02;;;9.40;99.90;;;10.71;100.00;101714.34;6133545;23;20458;-91
2021/09/02 01:48:12;;;;;;;15.15;9.10;;;9.40;99.90;;;10.67;100.00;101707.75;6133573;23;20016;-90
2021/09/02 01:50:40;;;;;;;20.38;9.98;;;9.30;99.90;;;10.62;100.00;101708.78;6158559;23;20010;-91
2021/09/02 01:53:13;;;;;;;16.92;9.30;;;9.30;99.90;;;10.55;100.00;101702.88;6133829;23;20005;-91
2021/09/02 01:55:41;;;;;;;16.50;9.05;;;9.20;99.90;;;10.50;100.00;101708.63;6133894;23;20432;-90
2021/09/02 01:58:10;;;;;;;19.45;9.85;;;9.20;99.90;;;10.50;100.00;101709.44;6133604;23;20016;-92
2021/09/02 02:00:37;;;;;;;18.00;9.73;;;9.10;99.90;;;10.45;100.00;101706.00;6133585;23;20002;-91
2021/09/02 02:03:05;;;;;;;18.75;10.65;;;9.10;99.90;;;10.49;100.00;101707.00;6133184;23;20013;-90
2021/09/02 02:05:35;;;;;;;20.90;9.70;;;9.10;99.90;;;10.46;100.00;101702.06;6134163;23;20005;-91
2021/09/02 02:08:01;;;;;;;18.65;9.43;;;9.10;99.90;;;10.48;100.00;101699.75;6161426;23;20412;-91
2021/09/02 02:10:32;;;;;;;16.73;9.20;;;9.10;99.90;;;10.44;100.00;101695.97;6154624;23;20017;-92
2021/09/02 02:13:04;;;;;;;18.75;9.48;;;9.10;99.90;;;10.40;100.00;101701.41;6156779;23;19997;-91
2021/09/02 02:15:31;;;;;;;22.73;10.48;;;9.10;99.90;;;10.40;100.00;101698.63;6156572;23;20021;-90
2021/09/02 02:17:58;;;;;;;21.15;10.68;;;9.00;99.90;;;10.46;100.00;101697.31;6176529;23;20056;-91
2021/09/02 02:20:25;;;;;;;23.15;11.00;;;9.10;99.90;;;10.51;100.00;101693.50;6135082;23;20013;-92
2021/09/02 02:22:52;;;;;;;20.77;11.15;;;9.20;99.90;;;10.57;100.00;101697.75;6132749;23;20001;-89
2021/09/02 02:25:19;;;;;;;22.83;11.05;;;9.20;99.90;;;10.64;100.00;101692.50;6131306;23;20069;-89
2021/09/02 02:27:46;;;;;;;19.70;10.88;;;9.30;99.90;;;10.63;100.00;101679.66;6132825;23;20060;-91
2021/09/02 02:30:17;;;;;;;21.75;11.48;;;9.30;99.90;;;10.61;100.00;101678.38;6157673;23;20031;-89
2021/09/02 02:32:47;;;;;;;20.38;11.52;;;9.30;99.90;;;10.60;100.00;101680.34;6157661;23;20010;-91
2021/09/02 02:35:15;;;;;;;20.50;10.10;;;9.30;99.90;;;10.65;100.00;101674.59;6132522;23;20085;-90
2021/09/02 02:37:43;;;;;;;20.77;11.02;;;9.40;99.90;;;10.66;100.00;101672.63;6156848;23;20320;-91
2021/09/02 02:40:13;;;;;;;18.67;10.38;;;9.30;99.90;;;10.67;100.00;101674.22;6131747;23;20010;-91
2021/09/02 02:42:42;;;;;;;21.55;10.68;;;9.30;99.90;;;10.68;100.00;101690.69;6131528;23;20013;-91
2021/09/02 02:45:10;;;;;;;19.60;10.68;;;9.30;99.90;;;10.63;100.00;101673.28;6131930;23;20020;-90
2021/09/02 02:47:36;;;;;;;24.10;10.15;;;9.30;99.90;;;10.60;100.00;101680.34;6156568;23;20009;-89
2021/09/02 02:50:05;;;;;;;21.27;11.15;;;9.20;99.90;;;10.57;100.00;101681.00;6156396;23;20001;-90
2021/09/02 02:52:31;;;;;;;20.85;11.35;;;9.20;99.90;;;10.57;100.00;101693.00;6131507;23;20006;-89
2021/09/02 02:54:57;;;;;;;21.77;11.30;;;9.20;99.90;;;10.54;100.00;101685.28;6155986;23;20316;-90
2021/09/02 02:57:23;;;;;;;19.27;11.30;;;9.20;99.90;;;10.57;100.00;101692.19;6135049;23;20020;-89
2021/09/02 02:59:49;;;;;;;22.95;11.70;;;9.10;99.90;;;10.50;100.00;101684.31;6163514;23;20393;-89
2021/09/02 03:02:15;;;;;;;19.42;10.43;;;9.10;99.90;;;10.51;100.00;101685.94;6156246;23;20009;-90
2021/09/02 03:04:41;;;;;;;24.58;11.75;;;9.20;99.90;;;10.47;100.00;101687.75;6156446;23;20082;-91
2021/09/02 03:07:07;;;;;;;19.55;10.18;;;9.10;99.90;;;10.45;100.00;101689.25;6131281;23;20009;-90
2021/09/02 03:09:43;;;;;;;18.48;10.07;;;9.10;99.90;;;10.39;100.00;101690.59;6156934;23;20005;-90
2021/09/02 03:12:10;;;;;;;17.40;10.32;;;9.10;99.90;;;10.35;100.00;101678.44;6132145;23;20195;-90
2021/09/02 03:14:36;;;;;;;17.98;9.85;;;9.00;99.90;;;10.32;100.00;101682.72;6156943;23;20336;-92
2021/09/02 03:17:05;;;;;;;15.63;9.38;;;9.00;99.90;;;10.27;100.00;101674.53;6156943;23;20009;-90
2021/09/02 03:19:44;;;;;;;15.63;10.05;;;8.90;99.90;;;10.23;100.00;101675.50;6157002;23;20522;-91
2021/09/02 03:22:18;;;;;;;18.33;9.15;;;8.90;99.90;;;10.18;100.00;101678.47;6157829;23;20013;-89
2021/09/02 03:24:44;;;;;;;20.08;9.65;;;8.80;99.90;;;10.17;100.00;101680.44;6156805;23;20096;-89
2021/09/02 03:27:10;;;;;;;14.05;8.15;;;8.80;99.90;;;10.18;100.00;101679.28;6130071;23;20045;-89
2021/09/02 03:29:36;;;;;;;17.23;9.10;;;8.80;99.90;;;10.14;100.00;101678.31;6131348;23;20017;-92
2021/09/02 03:32:08;;;;;;;22.17;11.32;;;8.80;99.90;;;10.10;100.00;101682.88;6132258;23;20017;-93
2021/09/02 03:34:53;;;;;;;19.98;9.07;;;8.80;99.90;;;10.10;100.00;101676.47;6156909;23;20435;-91
2021/09/02 03:37:19;;;;;;;18.20;9.85;;;8.70;99.90;;;10.10;100.00;101682.06;6132612;23;20505;-90
2021/09/02 03:39:45;;;;;;;18.52;9.70;;;8.60;99.90;;;10.06;100.00;101677.13;6130810;23;20031;-92
2021/09/02 03:42:11;;;;;;;20.55;10.63;;;8.70;99.90;;;10.02;100.00;101683.69;6131783;23;20431;-89
2021/09/02 03:44:37;;;;;;;19.42;10.15;;;8.70;99.90;;;10.02;100.00;101678.13;6132325;23;20005;-90
2021/09/02 03:47:05;;;;;;;17.98;9.48;;;8.70;99.90;;;10.00;100.00;101675.66;6132145;23;20159;-89
2021/09/02 03:49:46;;;;;;;19.60;10.13;;;8.70;99.90;;;9.99;100.00;101671.22;6132650;23;20436;-90
2021/09/02 03:52:17;;;;;;;16.70;9.65;;;8.60;99.90;;;9.97;100.00;101665.16;6157526;23;20006;-91
2021/09/02 03:54:43;;;;;;;18.73;9.90;;;8.70;99.90;;;10.00;100.00;101672.06;6133973;23;20013;-89
2021/09/02 03:57:10;;;;;;;19.80;10.70;;;8.70;99.90;;;10.02;100.00;101670.56;6132692;23;20024;-89
2021/09/02 03:59:36;;;;;;;21.38;11.00;;;8.70;99.90;;;10.05;100.00;101672.69;6157269;23;20044;-91
2021/09/02 04:02:02;;;;;;;18.23;10.38;;;8.70;99.90;;;10.06;100.00;101670.72;6132256;23;20016;-91
2021/09/02 04:04:30;;;;;;;21.80;10.23;;;8.60;99.90;;;10.06;100.00;101673.53;6133632;23;20024;-89
2021/09/02 04:06:56;;;;;;;17.52;10.70;;;8.70;99.90;;;9.96;100.00;101666.31;6131750;23;20009;-90
2021/09/02 04:09:25;;;;;;;22.98;11.20;;;8.60;99.90;;;9.97;100.00;101664.34;6157390;23;20006;-89
2021/09/02 04:11:52;;;;;;;22.80;11.50;;;8.70;99.90;;;10.00;100.00;101670.09;6156845;23;20013;-90
2021/09/02 04:14:29;;;;;;;19.27;10.55;;;8.60;99.90;;;10.02;100.00;101676.16;6132260;23;20503;-91
2021/09/02 04:17:21;;;;;;;25.83;11.98;;;8.70;99.90;;;10.09;100.00;101672.84;6132557;23;20010;-91
2021/09/02 04:19:52;;;;;;;19.45;10.63;;;8.70;99.90;;;10.14;100.00;101674.69;6157485;23;20041;-91
2021/09/02 04:22:19;;;;;;;22.55;11.60;;;8.70;99.90;;;10.16;100.00;101680.75;6156722;23;20032;-90
2021/09/02 04:24:45;;;;;;;18.67;10.85;;;8.80;99.90;;;10.16;100.00;101672.38;6156054;23;20057;-90
2021/09/02 04:27:14;;;;;;;21.27;11.70;;;8.80;99.90;;;10.21;100.00;101673.03;6132080;23;20014;-90
2021/09/02 04:29:40;;;;;;;22.80;10.95;;;8.80;99.90;;;10.25;100.00;101681.56;6157358;23;20009;-91
2021/09/02 04:32:07;;;;;;;26.75;12.30;;;8.80;99.90;;;10.30;100.00;101673.84;6162821;23;20012;-91
2021/09/02 04:34:33;;;;;;;19.70;10.93;;;8.80;99.90;;;10.35;100.00;101676.47;6133125;23;20035;-91
2021/09/02 04:36:58;;;;;;;22.58;11.50;;;8.90;99.90;;;10.42;100.00;101668.41;6132826;23;20036;-91
2021/09/02 04:39:24;;;;;;;23.55;11.88;;;9.00;99.90;;;10.54;100.00;101668.53;6158166;23;20013;-93
2021/09/02 04:41:50;;;;;;;20.58;11.88;;;9.10;99.90;;;10.65;100.00;101673.75;6158463;23;20005;-92
2021/09/02 04:44:16;;;;;;;19.08;11.32;;;9.20;99.90;;;10.70;100.00;101674.38;6158468;23;20009;-92
2021/09/02 04:46:42;;;;;;;22.20;11.48;;;9.20;99.90;;;10.72;100.00;101672.09;6158061;23;20009;-90
2021/09/02 04:49:08;;;;;;;22.70;12.27;;;9.30;99.90;;;10.78;100.00;101679.13;6133697;23;20098;-90
2021/09/02 04:51:34;;;;;;;23.75;12.77;;;9.30;99.90;;;10.88;100.00;101675.16;6131754;23;20424;-91
2021/09/02 04:54:00;;;;;;;20.80;11.70;;;9.40;99.90;;;10.93;100.00;101672.16;6156447;23;20052;-91
2021/09/02 04:56:26;;;;;;;20.35;11.02;;;9.50;99.90;;;10.93;100.00;101667.41;6131344;23;20020;-91
2021/09/02 04:58:51;;;;;;;23.17;11.77;;;9.50;99.90;;;10.97;100.00;101673.97;6131635;23;20013;-90
2021/09/02 05:01:17;;;;;;;20.77;11.65;;;9.50;99.90;;;10.97;100.00;101670.34;6158138;23;20009;-89
2021/09/02 05:03:43;;;;;;;20.00;10.30;;;9.50;99.90;;;11.00;100.00;101664.91;6164460;23;20009;-92
2021/09/02 05:06:09;;;;;;;25.25;11.35;;;9.50;99.90;;;11.04;100.00;101667.84;6156484;23;20021;-90
2021/09/02 05:08:35;;;;;;;18.70;10.25;;;9.60;99.90;;;11.07;100.00;101661.56;6156866;23;20006;-90
2021/09/02 05:11:01;;;;;;;26.35;11.57;;;9.60;99.90;;;11.10;100.00;101669.28;6132458;23;20010;-90
2021/09/02 05:13:27;;;;;;;22.40;11.85;;;9.60;99.90;;;11.11;100.00;101666.13;6159298;23;20440;-90
2021/09/02 05:15:54;;;;;;;21.65;10.82;;;9.70;99.90;;;11.13;100.00;101668.59;6138354;23;20110;-92
2021/09/02 05:18:20;;;;;;;21.63;11.50;;;9.60;99.90;;;11.17;100.00;101671.56;6140775;23;20002;-91
2021/09/02 05:20:47;;;;;;;19.73;12.00;;;9.60;99.90;;;11.18;100.00;101671.19;6135524;23;20009;-90
2021/09/02 05:23:13;;;;;;;21.42;11.77;;;9.70;99.90;;;11.23;100.00;101668.22;6159012;23;20005;-90
2021/09/02 05:25:40;;;;;;;19.25;11.25;;;9.70;99.90;;;11.27;100.00;101668.38;6159949;23;20020;-90
2021/09/02 05:28:06;;;;;;;19.88;11.20;;;9.70;99.90;;;11.28;100.00;101668.03;6160414;23;20009;-91
2021/09/02 05:30:36;;;;;;;17.42;10.18;;;9.70;99.90;;;11.29;100.00;101666.88;6160538;23;20014;-93
2021/09/02 05:33:02;;;;;;;19.75;10.80;;;9.70;99.90;;;11.29;100.00;101668.84;6160734;23;20029;-91
2021/09/02 05:35:28;;;;;;;22.67;10.73;;;9.80;99.90;;;11.31;100.00;101664.53;6161867;23;20005;-92
2021/09/02 05:37:54;;;;;;;21.02;10.75;;;9.90;99.90;;;11.39;100.00;101677.66;6159742;23;20005;-89
2021/09/02 05:40:20;;;;;;;20.38;10.07;;;9.90;99.90;;;11.44;100.00;101673.84;6160741;23;20097;-90
2021/09/02 05:42:46;;;;;;;22.17;10.68;;;9.90;99.90;;;11.49;100.00;101668.84;6163209;23;20092;-91
2021/09/02 05:45:12;;;;;;;20.75;11.73;;;10.00;99.90;;;11.58;100.00;101671.63;6162446;23;20009;-92
2021/09/02 05:47:38;;;;;;;22.10;10.50;;;10.10;99.90;;;11.63;100.00;101672.22;6161110;23;20032;-93
2021/09/02 05:50:07;;;;;;;18.70;10.93;;;10.10;99.90;;;11.68;100.00;101673.19;6161464;23;20005;-90
2021/09/02 05:52:33;;;;;;;22.50;12.15;;;10.10;99.90;;;11.73;100.00;101670.19;6162263;23;20020;-92
2021/09/02 05:55:01;;;;;;;20.38;11.45;;;10.20;99.90;;;11.86;100.00;101664.34;6135895;23;20013;-90
2021/09/02 05:57:27;;;;;;;17.55;11.02;;;10.30;99.90;;;12.15;100.00;101661.44;6134911;23;20079;-90
2021/09/02 05:59:53;;;;;;;18.63;10.65;;;10.40;99.90;;;12.41;100.00;101661.16;6159087;23;20378;-91
2021/09/02 06:02:20;;;;;;;21.83;10.68;;;10.60;99.90;;;12.65;100.00;101674.41;6160229;23;20010;-91
2021/09/02 06:04:46;;;;;;;20.70;10.38;;;10.70;99.90;;;12.90;100.00;101664.06;6159490;23;20316;-89
2021/09/02 06:07:12;;;;;;;14.90;9.70;;;10.90;99.90;;;13.22;100.00;101671.56;6135235;23;20036;-91
2021/09/02 06:09:38;;;;;;;15.18;8.98;;;11.10;99.90;;;13.51;100.00;101673.31;6159762;23;20043;-92
2021/09/02 06:12:06;;;;;;;14.27;9.25;;;11.40;99.90;;;13.86;100.00;101676.38;6134294;23;20025;-92
2021/09/02 06:14:34;;;;;;;12.20;8.75;;;11.60;99.90;;;14.23;100.00;101675.06;6133695;23;20009;-93
2021/09/02 06:17:00;;;;;;;14.52;8.43;;;11.80;99.90;;;14.58;100.00;101678.06;6132401;23;20052;-91
2021/09/02 06:19:32;;;;;;;19.67;8.95;;;12.10;99.90;;;14.90;99.19;101682.53;6133135;23;20010;-90
2021/09/02 06:22:00;;;;;;;22.15;9.30;;;12.40;99.90;;;15.16;96.85;101679.16;6133150;23;20013;-92
2021/09/02 06:24:26;;;;;;;16.30;8.48;;;12.60;99.90;;;15.38;95.88;101684.13;6134128;23;20016;-90
2021/09/02 07:55:03;;;;;;;18.10;11.63;;;18.20;99.90;;;20.59;71.20;101713.56;6161867;23;20021;-90
2021/09/02 07:57:40;;;;;;;;;;;;;;;;;;;;;
2021/09/02 08:04:20;;;;;;;23.60;13.68;;;18.80;99.90;;;20.83;67.97;101723.38;6160187;23;20025;-91
2021/09/02 08:06:58;;;;;;;;;;;;;;;;;;;;;
2021/09/02 08:09:29;;;;;;;22.85;12.20;;;18.80;99.90;;;20.87;67.88;101710.78;6161514;23;20025;-90
2021/09/02 08:12:18;;;;;;;21.35;13.75;;;18.90;99.90;;;20.76;68.74;101718.50;6161912;23;20033;-91
2021/09/02 08:14:44;;;;;;;27.95;13.82;;;18.80;99.90;;;20.77;69.32;101711.59;6113239;23;20017;-88
2021/09/02 08:17:11;;;;;;;23.10;13.27;;;18.90;99.90;;;20.94;68.52;101719.31;6111522;23;20079;-91
2021/09/02 08:19:48;;;;;;;24.90;14.93;;;19.00;99.90;;;21.02;67.25;101717.31;6162264;23;20097;-88
2021/09/02 08:22:16;;;;;;;23.35;13.82;;;19.10;99.90;;;21.10;68.49;101721.81;6135685;23;20017;-90
2021/09/02 08:24:43;;;;;;;20.90;12.82;;;19.20;99.90;;;21.43;66.79;101727.09;6159819;23;20010;-89
2021/09/02 08:27:20;;;;;;;24.77;12.57;;;19.40;99.90;;;21.71;66.29;101736.81;6111512;23;20021;-88
2021/09/02 08:30:33;;;;;;;;;;;;;;;;;;;;;
2021/09/02 08:33:00;;;;;;;21.85;12.60;;;19.70;99.90;;;22.08;64.97;101731.50;6145986;23;20033;-90
2021/09/02 08:36:00;;;;;;;22.45;12.65;;;20.00;99.90;;;22.18;63.15;101732.69;6097383;23;20032;-90
2021/09/02 08:38:28;;;;;;;23.00;14.30;;;20.10;99.90;;;22.17;63.54;101731.06;6148988;23;20028;-90
2021/09/02 08:41:03;;;;;;;20.77;11.98;;;20.20;99.90;;;22.28;64.29;101731.84;6153109;23;20010;-91
2021/09/02 08:43:38;;;;;;;20.52;11.88;;;20.30;99.90;;;22.57;62.38;101727.66;6144474;23;20004;-91
2021/09/02 08:46:34;;;;;;;;;;;;;;;;;;;;;
2021/09/02 08:52:00;;;;;;;22.75;13.05;;;20.60;99.90;;;23.08;59.63;101715.53;6149354;23;20032;-89
2021/09/02 08:54:47;;;;;;;20.02;11.93;;;20.90;99.90;;;23.44;60.70;101716.88;6163829;23;20017;-89
2021/09/02 08:57:19;;;;;;;23.13;12.70;;;21.10;99.90;;;23.58;58.13;101713.09;6138799;23;20006;-90
2021/09/02 08:59:55;;;;;;;22.08;14.30;;;21.30;99.90;;;23.63;58.95;101713.44;6115150;23;20009;-90
2021/09/02 09:02:49;;;;;;;;;;;;;;;;;;;;;
2021/09/02 09:05:20;;;;;;;21.95;12.85;;;21.40;99.90;;;23.73;58.59;101719.50;6144574;23;20033;-88
2021/09/02 09:08:10;;;;;;;22.83;13.73;;;21.50;99.90;;;24.03;57.75;101716.72;6138828;23;20086;-89
2021/09/02 09:10:45;;;;;;;26.67;16.08;;;21.60;99.90;;;23.97;57.40;101721.25;6117928;23;20006;-88
2021/09/02 09:13:13;;;;;;;22.40;12.32;;;21.60;99.90;;;24.17;57.66;101728.00;6163681;23;20005;-89
2021/09/02 09:15:47;;;;;;;19.38;12.27;;;21.80;99.90;;;24.25;57.56;101725.84;6174315;23;20009;-88
2021/09/02 09:18:47;;;;;;;20.85;13.00;;;21.80;99.90;;;24.40;57.07;101715.88;6153391;23;20021;-88
2021/09/02 09:21:18;;;;;;;21.00;12.88;;;21.90;99.90;;;24.56;56.74;101719.72;6136057;23;20009;-89
2021/09/02 09:24:05;;;;;;;21.90;13.30;;;22.10;99.90;;;24.52;56.21;101721.03;6138135;23;20104;-89
2021/09/02 09:26:35;;;;;;;25.20;12.27;;;22.20;99.90;;;24.72;55.73;101724.03;6137503;23;20013;-89
2021/09/02 09:29:18;;;;;;;24.20;13.82;;;22.30;99.90;;;25.08;55.47;101722.25;6137448;23;20005;-89
2021/09/02 09:31:45;;;;;;;23.08;13.18;;;22.50;99.90;;;25.09;54.71;101721.03;6137376;23;20006;-89
2021/09/02 09:34:13;;;;;;;23.73;12.07;;;22.70;99.90;;;24.56;55.18;101711.16;6162412;23;20102;-89
2021/09/02 09:36:39;;;;;;;17.90;11.40;;;22.60;99.90;;;24.59;55.24;101712.38;6137208;23;20006;-89
2021/09/02 09:39:14;;;;;;;21.25;12.68;;;22.40;99.90;;;24.23;58.13;101708.34;6137292;23;20435;-89
2021/09/02 09:41:47;;;;;;;17.95;11.80;;;22.40;99.90;;;24.94;56.85;101706.16;6136285;23;20009;-90
2021/09/02 09:44:28;;;;;;;26.65;12.13;;;22.60;99.90;;;24.64;55.55;101706.97;6138872;23;20075;-89
2021/09/02 09:47:18;;;;;;;19.95;12.27;;;22.50;99.90;;;24.60;55.53;101708.25;6135776;23;20133;-88
2021/09/02 09:50:02;;;;;;;21.80;12.63;;;22.40;99.90;;;24.62;57.07;101702.94;6135126;23;20012;-91
2021/09/02 09:52:41;;;;;;;22.92;11.52;;;22.50;99.90;;;24.78;57.17;101703.13;6134337;23;20019;-89
2021/09/02 09:55:18;;;;;;;20.23;11.43;;;22.70;99.90;;;24.66;55.55;101704.50;6134775;23;20009;-87
2021/09/02 09:57:47;;;;;;;18.58;11.02;;;22.70;99.90;;;25.06;54.33;101701.88;6159448;23;20009;-89
2021/09/02 10:00:21;;;;;;;19.05;9.77;;;22.80;99.90;;;25.20;54.11;101698.81;6135371;23;20470;-89
2021/09/02 10:02:51;;;;;;;22.27;11.20;;;22.90;99.90;;;25.39;53.96;101709.50;6135018;23;20021;-88
2021/09/02 10:05:21;;;;;;;18.77;10.95;;;23.00;99.90;;;25.13;54.49;101708.31;6135659;23;20088;-91
2021/09/02 10:07:50;;;;;;;15.32;9.73;;;23.10;99.90;;;25.48;53.98;101701.19;6134116;23;20021;-90
2021/09/02 10:10:17;;;;;;;18.02;10.00;;;23.20;99.90;;;25.41;53.57;101707.03;6161604;23;20001;-89
2021/09/02 10:12:47;;;;;;;19.98;10.00;;;23.30;99.90;;;25.34;54.00;101701.41;6134019;23;20423;-89
2021/09/02 10:15:20;;;;;;;20.05;10.10;;;23.20;99.90;;;25.27;54.25;101692.94;6134960;23;20010;-88
2021/09/02 10:17:48;;;;;;;16.33;10.48;;;23.20;99.90;;;25.56;53.60;101690.44;6134868;23;20009;-91
2021/09/02 10:20:22;;;;;;;19.60;10.10;;;23.30;99.90;;;25.20;54.20;101678.78;6134581;23;20013;-89
2021/09/02 10:22:55;;;;;;;16.52;8.32;;;23.20;99.90;;;25.67;53.14;101677.56;6135377;23;20084;-89
2021/09/02 10:25:33;;;;;;;25.45;11.80;;;23.30;99.90;;;25.94;53.55;101679.50;6136004;23;20009;-90
2021/09/02 10:28:11;;;;;;;19.83;11.82;;;23.60;99.90;;;26.28;52.39;101682.91;6160824;23;20015;-88
2021/09/02 10:30:55;;;;;;;17.75;10.18;;;23.80;99.90;;;26.36;52.23;101678.63;6162981;23;20020;-89
2021/09/02 10:33:46;;;;;;;18.95;10.45;;;24.00;99.90;;;26.50;51.57;101672.59;6160710;23;20005;-91
2021/09/02 10:36:15;;;;;;;19.13;9.55;;;24.10;99.90;;;26.63;51.19;101684.16;6160093;23;20076;-89
2021/09/02 10:38:53;;;;;;;18.85;11.18;;;24.20;99.90;;;26.54;51.33;101675.38;6159055;23;20064;-89
2021/09/02 10:41:40;;;;;;;16.95;10.75;;;24.00;99.90;;;26.38;51.91;101670.41;6159141;23;20009;-91
2021/09/02 10:44:16;;;;;;;19.50;10.57;;;24.10;99.90;;;26.07;52.29;101684.13;6134538;23;20014;-90
2021/09/02 10:46:54;;;;;;;17.58;10.15;;;23.90;99.90;;;25.11;54.18;101670.75;6159873;23;20009;-90
2021/09/02 10:49:25;;;;;;;17.88;9.40;;;23.20;99.90;;;24.94;54.33;101673.91;6137063;23;20002;-91
2021/09/02 10:52:23;;;;;;;21.80;10.18;;;23.00;99.90;;;24.74;55.35;101667.25;6139937;23;20006;-92
2021/09/02 10:54:50;;;;;;;18.60;10.23;;;22.70;99.90;;;25.14;55.38;101664.16;6146118;23;20014;-92
2021/09/02 10:57:17;;;;;;;18.95;11.73;;;22.80;99.90;;;25.04;55.84;101653.72;6170497;23;20010;-91
2021/09/02 10:59:52;;;;;;;16.15;10.55;;;22.90;99.90;;;25.57;54.22;101649.94;6166478;23;20040;-89
2021/09/02 11:02:17;;;;;;;21.35;10.77;;;23.20;99.90;;;26.01;53.70;101662.97;6142271;23;20077;-89
2021/09/02 11:05:05;;;;;;;16.90;9.20;;;23.60;99.90;;;26.34;51.88;101666.81;6169654;23;20009;-91
2021/09/02 11:07:48;;;;;;;17.98;9.00;;;23.90;99.90;;;25.91;52.66;101655.41;6144410;23;20109;-89
2021/09/02 11:10:22;;;;;;;21.42;12.35;;;23.70;99.90;;;25.82;53.90;101652.31;6144923;23;20440;-89
2021/09/02 11:13:03;;;;;;;18.20;12.20;;;23.60;99.90;;;26.08;53.80;101662.84;6140470;23;20005;-88
2021/09/02 11:15:37;;;;;;;19.83;11.15;;;23.80;99.90;;;26.33;53.25;101650.09;6140486;23;20012;-89
2021/09/02 11:18:06;;;;;;;18.33;12.15;;;24.00;99.90;;;26.50;50.65;101658.25;6140496;23;20009;-89
2021/09/02 11:20:37;;;;;;;20.98;12.77;;;24.30;99.90;;;26.82;52.50;101663.28;6141697;23;20013;-89
2021/09/02 11:23:18;;;;;;;19.52;12.20;;;24.60;99.90;;;27.41;50.10;101656.47;6143555;23;20077;-88
2021/09/02 11:25:51;;;;;;;17.45;9.93;;;25.10;99.90;;;27.84;47.86;101661.91;6143322;23;20447;-90
2021/09/02 11:28:21;;;;;;;18.70;11.25;;;25.40;99.90;;;28.31;47.45;101656.44;6142960;23;20037;-89
2021/09/02 11:30:50;;;;;;;23.08;13.40;;;25.80;99.90;;;27.85;47.86;101652.81;6150035;23;20005;-87
2021/09/02 11:33:17;;;;;;;22.65;13.98;;;25.70;99.70;;;27.52;48.83;101654.13;6151532;23;20005;-87
2021/09/02 11:35:59;;;;;;;18.75;12.35;;;25.50;99.90;;;27.01;50.29;101650.13;6150944;23;20013;-87
2021/09/02 11:38:26;;;;;;;20.52;12.68;;;25.00;99.90;;;26.54;51.23;101650.41;6145506;23;20016;-86
2021/09/02 11:40:53;;;;;;;19.50;12.43;;;24.60;99.90;;;26.22;51.44;101649.50;6152333;23;20016;-89
2021/09/02 11:43:21;;;;;;;28.08;14.57;;;24.20;99.90;;;25.37;53.56;101636.81;6141072;23;20006;-88
2021/09/02 11:45:54;;;;;;;19.58;13.10;;;23.60;99.90;;;24.94;55.59;101634.72;6134790;23;20056;-87
2021/09/02 11:48:21;;;;;;;20.70;13.40;;;23.10;99.90;;;25.07;55.76;101623.47;6160709;23;20010;-87
2021/09/02 11:51:01;;;;;;;19.98;12.70;;;23.00;99.90;;;25.20;54.73;101633.06;6134663;23;20006;-89
2021/09/02 11:53:30;;;;;;;20.50;12.55;;;23.10;99.90;;;25.53;54.42;101623.47;6135964;23;20469;-89
2021/09/02 11:56:11;;;;;;;19.27;11.10;;;23.30;99.90;;;26.20;54.06;101627.00;6134396;23;20010;-89
2021/09/02 11:58:37;;;;;;;26.70;15.57;;;23.80;99.90;;;26.24;51.43;101621.22;6133926;23;20468;-90
2021/09/02 12:01:04;;;;;;;19.83;11.57;;;24.20;99.90;;;26.68;51.82;101618.53;6135350;23;20033;-89
2021/09/02 12:03:30;;;;;;;22.05;12.95;;;24.40;99.90;;;26.84;52.27;101622.72;6135420;23;20005;-89
2021/09/02 12:05:57;;;;;;;21.00;12.43;;;24.60;99.90;;;26.46;51.20;101623.16;6133161;23;20005;-89
2021/09/02 12:08:27;;;;;;;20.80;13.93;;;24.40;99.90;;;26.32;51.59;101622.69;6133765;23;20036;-90
2021/09/02 12:10:55;;;;;;;20.98;12.30;;;24.30;99.90;;;26.30;51.78;101623.13;6134501;23;20036;-88
2021/09/02 12:13:36;;;;;;;22.02;13.93;;;24.20;99.90;;;25.87;52.31;101611.75;6135633;23;20005;-88
2021/09/02 12:16:16;;;;;;;22.13;13.35;;;24.00;99.90;;;26.36;51.73;101620.56;6136508;23;20009;-91
2021/09/02 12:18:49;;;;;;;17.10;11.07;;;24.20;99.90;;;26.95;51.50;101614.66;6132187;23;20035;-90
2021/09/02 12:21:29;;;;;;;23.38;13.88;;;24.60;99.90;;;26.91;50.09;101617.59;6132965;23;20013;-90
2021/09/02 12:24:06;;;;;;;24.15;12.93;;;24.60;99.90;;;26.66;51.80;101620.25;6133691;23;20347;-88
2021/09/02 12:26:58;;;;;;;25.65;13.52;;;24.40;99.90;;;26.24;52.06;101612.63;6157008;23;20304;-89